sensor_id;sensor_type;location;lat;lon;timestamp;P1;durP1;ratioP1;P2;durP2;ratioP2
44766;SDS011;30487;48.716;9.272;2023-04-15T00:00:41;9.35;;;2.60;;
44766;SDS011;30487;48.716;9.272;2023-04-15T00:03:07;10.13;;;2.75;;
44766;SDS011;30487;48.716;9.272;2023-04-15T00:05:33;6.60;;;2.33;;
44766;SDS011;30487;48.716;9.272;2023-04-15T00:07:58;9.07;;;2.60;;
44766;SDS011;30487;48.716;9.272;2023-04-15T00:10:25;6.45;;;2.72;;
44766;SDS011;30487;48.716;9.272;2023-04-15T00:12:52;5.28;;;2.50;;
44766;SDS011;30487;48.716;9.272;2023-04-15T00:15:18;6.63;;;2.75;;
44766;SDS011;30487;48.716;9.272;2023-04-15T00:17:43;6.57;;;2.80;;
44766;SDS011;30487;48.716;9.272;2023-04-15T00:20:09;6.38;;;2.20;;
44766;SDS011;30487;48.716;9.272;2023-04-15T00:22:35;7.97;;;2.78;;
44766;SDS011;30487;48.716;9.272;2023-04-15T00:25:01;10.35;;;3.30;;
44766;SDS011;30487;48.716;9.272;2023-04-15T00:27:27;7.93;;;2.78;;
44766;SDS011;30487;48.716;9.272;2023-04-15T00:29:53;7.55;;;2.90;;
44766;SDS011;30487;48.716;9.272;2023-04-15T00:32:19;7.30;;;2.65;;
44766;SDS011;30487;48.716;9.272;2023-04-15T00:34:44;12.18;;;2.90;;
44766;SDS011;30487;48.716;9.272;2023-04-15T00:37:10;9.73;;;2.95;;
44766;SDS011;30487;48.716;9.272;2023-04-15T00:39:36;6.20;;;2.42;;
44766;SDS011;30487;48.716;9.272;2023-04-15T00:42:03;8.32;;;2.75;;
44766;SDS011;30487;48.716;9.272;2023-04-15T00:44:29;6.25;;;2.60;;
44766;SDS011;30487;48.716;9.272;2023-04-15T00:46:55;8.02;;;3.20;;
44766;SDS011;30487;48.716;9.272;2023-04-15T00:49:21;8.32;;;2.63;;
44766;SDS011;30487;48.716;9.272;2023-04-15T00:51:47;8.43;;;2.95;;
44766;SDS011;30487;48.716;9.272;2023-04-15T00:54:13;8.98;;;3.22;;
44766;SDS011;30487;48.716;9.272;2023-04-15T00:56:39;6.72;;;3.13;;
44766;SDS011;30487;48.716;9.272;2023-04-15T00:59:05;8.15;;;2.83;;
44766;SDS011;30487;48.716;9.272;2023-04-15T01:01:33;6.75;;;2.70;;
44766;SDS011;30487;48.716;9.272;2023-04-15T01:04:02;6.82;;;2.60;;
44766;SDS011;30487;48.716;9.272;2023-04-15T01:06:29;8.15;;;2.60;;
44766;SDS011;30487;48.716;9.272;2023-04-15T01:08:56;8.13;;;2.70;;
44766;SDS011;30487;48.716;9.272;2023-04-15T01:11:22;8.90;;;3.05;;
44766;SDS011;30487;48.716;9.272;2023-04-15T01:13:48;7.30;;;2.83;;
44766;SDS011;30487;48.716;9.272;2023-04-15T01:16:15;7.50;;;2.90;;
44766;SDS011;30487;48.716;9.272;2023-04-15T01:18:42;6.18;;;2.65;;
44766;SDS011;30487;48.716;9.272;2023-04-15T01:21:07;6.50;;;2.75;;
44766;SDS011;30487;48.716;9.272;2023-04-15T01:23:34;6.25;;;2.13;;
44766;SDS011;30487;48.716;9.272;2023-04-15T01:26:02;7.70;;;2.85;;
44766;SDS011;30487;48.716;9.272;2023-04-15T01:28:29;7.75;;;2.63;;
44766;SDS011;30487;48.716;9.272;2023-04-15T01:31:08;6.03;;;2.88;;
44766;SDS011;30487;48.716;9.272;2023-04-15T01:33:36;4.13;;;2.28;;
44766;SDS011;30487;48.716;9.272;2023-04-15T01:36:03;7.43;;;2.55;;
44766;SDS011;30487;48.716;9.272;2023-04-15T01:38:29;5.55;;;2.35;;
44766;SDS011;30487;48.716;9.272;2023-04-15T01:40:56;7.07;;;2.63;;
44766;SDS011;30487;48.716;9.272;2023-04-15T01:43:22;7.20;;;2.67;;
44766;SDS011;30487;48.716;9.272;2023-04-15T01:45:47;7.38;;;2.70;;
44766;SDS011;30487;48.716;9.272;2023-04-15T01:48:13;6.28;;;2.70;;
44766;SDS011;30487;48.716;9.272;2023-04-15T01:50:39;7.82;;;2.78;;
44766;SDS011;30487;48.716;9.272;2023-04-15T01:53:04;6.63;;;2.20;;
44766;SDS011;30487;48.716;9.272;2023-04-15T01:55:30;6.90;;;2.55;;
44766;SDS011;30487;48.716;9.272;2023-04-15T01:57:55;4.63;;;2.50;;
44766;SDS011;30487;48.716;9.272;2023-04-15T02:00:21;12.77;;;3.60;;
44766;SDS011;30487;48.716;9.272;2023-04-15T02:02:47;10.05;;;3.70;;
44766;SDS011;30487;48.716;9.272;2023-04-15T02:05:13;7.40;;;2.88;;
44766;SDS011;30487;48.716;9.272;2023-04-15T02:07:40;12.63;;;4.10;;
44766;SDS011;30487;48.716;9.272;2023-04-15T02:10:07;15.90;;;4.38;;
44766;SDS011;30487;48.716;9.272;2023-04-15T02:12:34;9.00;;;4.25;;
44766;SDS011;30487;48.716;9.272;2023-04-15T02:15:00;11.00;;;4.50;;
44766;SDS011;30487;48.716;9.272;2023-04-15T02:17:26;11.10;;;3.75;;
44766;SDS011;30487;48.716;9.272;2023-04-15T02:19:51;8.95;;;3.85;;
44766;SDS011;30487;48.716;9.272;2023-04-15T02:22:19;9.50;;;3.75;;
44766;SDS011;30487;48.716;9.272;2023-04-15T02:24:45;11.57;;;4.03;;
44766;SDS011;30487;48.716;9.272;2023-04-15T02:27:14;11.95;;;4.00;;
44766;SDS011;30487;48.716;9.272;2023-04-15T02:29:41;8.98;;;3.72;;
44766;SDS011;30487;48.716;9.272;2023-04-15T02:32:10;11.50;;;3.40;;
44766;SDS011;30487;48.716;9.272;2023-04-15T02:34:38;5.70;;;2.95;;
44766;SDS011;30487;48.716;9.272;2023-04-15T02:37:07;9.75;;;3.45;;
44766;SDS011;30487;48.716;9.272;2023-04-15T02:39:34;11.68;;;3.33;;
44766;SDS011;30487;48.716;9.272;2023-04-15T02:42:00;9.35;;;3.55;;
44766;SDS011;30487;48.716;9.272;2023-04-15T02:44:26;6.85;;;3.30;;
44766;SDS011;30487;48.716;9.272;2023-04-15T02:46:52;9.68;;;3.47;;
44766;SDS011;30487;48.716;9.272;2023-04-15T02:49:21;6.50;;;2.83;;
44766;SDS011;30487;48.716;9.272;2023-04-15T02:51:47;9.18;;;3.00;;
44766;SDS011;30487;48.716;9.272;2023-04-15T02:54:17;9.68;;;3.13;;
44766;SDS011;30487;48.716;9.272;2023-04-15T02:56:43;6.43;;;2.80;;
44766;SDS011;30487;48.716;9.272;2023-04-15T02:59:09;6.75;;;2.72;;
44766;SDS011;30487;48.716;9.272;2023-04-15T03:01:36;8.98;;;2.60;;
44766;SDS011;30487;48.716;9.272;2023-04-15T03:04:01;9.48;;;2.80;;
44766;SDS011;30487;48.716;9.272;2023-04-15T03:06:27;7.70;;;3.00;;
44766;SDS011;30487;48.716;9.272;2023-04-15T03:08:53;6.50;;;2.83;;
44766;SDS011;30487;48.716;9.272;2023-04-15T03:11:18;7.45;;;2.75;;
44766;SDS011;30487;48.716;9.272;2023-04-15T03:13:45;11.23;;;3.20;;
44766;SDS011;30487;48.716;9.272;2023-04-15T03:16:11;8.77;;;3.30;;
44766;SDS011;30487;48.716;9.272;2023-04-15T03:18:36;6.70;;;2.78;;
44766;SDS011;30487;48.716;9.272;2023-04-15T03:21:02;10.07;;;3.25;;
44766;SDS011;30487;48.716;9.272;2023-04-15T03:23:29;8.02;;;2.95;;
44766;SDS011;30487;48.716;9.272;2023-04-15T03:25:56;8.88;;;3.20;;
44766;SDS011;30487;48.716;9.272;2023-04-15T03:28:22;8.95;;;3.50;;
44766;SDS011;30487;48.716;9.272;2023-04-15T03:30:48;8.57;;;3.25;;
44766;SDS011;30487;48.716;9.272;2023-04-15T03:33:14;9.93;;;3.78;;
44766;SDS011;30487;48.716;9.272;2023-04-15T03:35:39;8.75;;;3.38;;
44766;SDS011;30487;48.716;9.272;2023-04-15T03:38:05;9.18;;;3.35;;
44766;SDS011;30487;48.716;9.272;2023-04-15T03:40:31;7.82;;;3.65;;
44766;SDS011;30487;48.716;9.272;2023-04-15T03:42:56;8.13;;;3.25;;
44766;SDS011;30487;48.716;9.272;2023-04-15T03:45:22;9.38;;;3.47;;
44766;SDS011;30487;48.716;9.272;2023-04-15T03:47:47;11.13;;;3.47;;
44766;SDS011;30487;48.716;9.272;2023-04-15T03:50:13;9.90;;;3.70;;
44766;SDS011;30487;48.716;9.272;2023-04-15T03:52:39;8.27;;;3.83;;
44766;SDS011;30487;48.716;9.272;2023-04-15T03:55:05;8.07;;;3.47;;
44766;SDS011;30487;48.716;9.272;2023-04-15T03:57:31;11.40;;;3.97;;
44766;SDS011;30487;48.716;9.272;2023-04-15T03:59:57;8.57;;;3.63;;
44766;SDS011;30487;48.716;9.272;2023-04-15T04:02:22;8.65;;;3.60;;
44766;SDS011;30487;48.716;9.272;2023-04-15T04:04:48;8.70;;;3.65;;
44766;SDS011;30487;48.716;9.272;2023-04-15T04:07:17;9.27;;;3.55;;
44766;SDS011;30487;48.716;9.272;2023-04-15T04:09:42;12.55;;;3.80;;
44766;SDS011;30487;48.716;9.272;2023-04-15T04:12:08;9.15;;;3.97;;
44766;SDS011;30487;48.716;9.272;2023-04-15T04:14:34;9.98;;;3.53;;
44766;SDS011;30487;48.716;9.272;2023-04-15T04:16:59;10.93;;;3.65;;
44766;SDS011;30487;48.716;9.272;2023-04-15T04:19:25;7.88;;;3.85;;
44766;SDS011;30487;48.716;9.272;2023-04-15T04:21:51;9.45;;;3.85;;
44766;SDS011;30487;48.716;9.272;2023-04-15T04:24:17;9.02;;;3.83;;
44766;SDS011;30487;48.716;9.272;2023-04-15T04:26:42;8.30;;;3.50;;
44766;SDS011;30487;48.716;9.272;2023-04-15T04:29:08;8.55;;;3.60;;
44766;SDS011;30487;48.716;9.272;2023-04-15T04:31:33;9.48;;;4.28;;
44766;SDS011;30487;48.716;9.272;2023-04-15T04:33:59;10.20;;;3.63;;
44766;SDS011;30487;48.716;9.272;2023-04-15T04:36:25;8.50;;;3.53;;
44766;SDS011;30487;48.716;9.272;2023-04-15T04:38:50;13.23;;;4.43;;
44766;SDS011;30487;48.716;9.272;2023-04-15T04:41:16;9.25;;;3.58;;
44766;SDS011;30487;48.716;9.272;2023-04-15T04:43:42;8.05;;;3.38;;
44766;SDS011;30487;48.716;9.272;2023-04-15T04:46:07;11.50;;;3.40;;
44766;SDS011;30487;48.716;9.272;2023-04-15T04:48:34;7.45;;;3.40;;
44766;SDS011;30487;48.716;9.272;2023-04-15T04:51:00;9.40;;;3.63;;
44766;SDS011;30487;48.716;9.272;2023-04-15T04:53:26;6.75;;;2.85;;
44766;SDS011;30487;48.716;9.272;2023-04-15T04:55:52;9.23;;;3.22;;
44766;SDS011;30487;48.716;9.272;2023-04-15T04:58:17;9.27;;;3.00;;
44766;SDS011;30487;48.716;9.272;2023-04-15T05:00:43;9.18;;;3.47;;
44766;SDS011;30487;48.716;9.272;2023-04-15T05:03:09;9.25;;;3.17;;
44766;SDS011;30487;48.716;9.272;2023-04-15T05:05:34;8.48;;;3.10;;
44766;SDS011;30487;48.716;9.272;2023-04-15T05:08:03;7.30;;;2.83;;
44766;SDS011;30487;48.716;9.272;2023-04-15T05:10:29;7.63;;;2.90;;
44766;SDS011;30487;48.716;9.272;2023-04-15T05:12:55;6.20;;;2.80;;
44766;SDS011;30487;48.716;9.272;2023-04-15T05:15:21;9.43;;;3.40;;
44766;SDS011;30487;48.716;9.272;2023-04-15T05:17:47;7.97;;;2.78;;
44766;SDS011;30487;48.716;9.272;2023-04-15T05:20:12;10.38;;;3.28;;
44766;SDS011;30487;48.716;9.272;2023-04-15T05:22:38;8.82;;;3.30;;
44766;SDS011;30487;48.716;9.272;2023-04-15T05:25:04;8.13;;;3.20;;
44766;SDS011;30487;48.716;9.272;2023-04-15T05:27:30;8.30;;;3.10;;
44766;SDS011;30487;48.716;9.272;2023-04-15T05:29:55;7.18;;;2.83;;
44766;SDS011;30487;48.716;9.272;2023-04-15T05:32:21;7.45;;;3.55;;
44766;SDS011;30487;48.716;9.272;2023-04-15T05:34:46;4.95;;;2.10;;
44766;SDS011;30487;48.716;9.272;2023-04-15T05:37:12;8.02;;;2.72;;
44766;SDS011;30487;48.716;9.272;2023-04-15T05:39:38;6.63;;;2.63;;
44766;SDS011;30487;48.716;9.272;2023-04-15T05:42:03;7.78;;;2.70;;
44766;SDS011;30487;48.716;9.272;2023-04-15T05:44:30;8.32;;;2.88;;
44766;SDS011;30487;48.716;9.272;2023-04-15T05:46:56;7.72;;;2.90;;
44766;SDS011;30487;48.716;9.272;2023-04-15T05:49:21;7.40;;;2.90;;
44766;SDS011;30487;48.716;9.272;2023-04-15T05:51:47;8.27;;;3.08;;
44766;SDS011;30487;48.716;9.272;2023-04-15T05:54:13;5.93;;;2.67;;
44766;SDS011;30487;48.716;9.272;2023-04-15T05:56:39;7.38;;;3.10;;
44766;SDS011;30487;48.716;9.272;2023-04-15T05:59:05;7.75;;;2.30;;
44766;SDS011;30487;48.716;9.272;2023-04-15T06:01:32;7.50;;;2.55;;
44766;SDS011;30487;48.716;9.272;2023-04-15T06:03:58;5.50;;;2.40;;
44766;SDS011;30487;48.716;9.272;2023-04-15T06:06:24;6.43;;;2.63;;
44766;SDS011;30487;48.716;9.272;2023-04-15T06:08:51;7.07;;;3.10;;
44766;SDS011;30487;48.716;9.272;2023-04-15T06:11:19;9.25;;;2.70;;
44766;SDS011;30487;48.716;9.272;2023-04-15T06:13:46;8.18;;;2.70;;
44766;SDS011;30487;48.716;9.272;2023-04-15T06:16:11;7.78;;;2.70;;
44766;SDS011;30487;48.716;9.272;2023-04-15T06:18:37;6.07;;;2.70;;
44766;SDS011;30487;48.716;9.272;2023-04-15T06:21:03;7.03;;;2.55;;
44766;SDS011;30487;48.716;9.272;2023-04-15T06:23:29;15.38;;;3.00;;
44766;SDS011;30487;48.716;9.272;2023-04-15T06:25:55;6.68;;;2.70;;
44766;SDS011;30487;48.716;9.272;2023-04-15T06:28:20;8.68;;;2.95;;
44766;SDS011;30487;48.716;9.272;2023-04-15T06:30:46;6.68;;;2.53;;
44766;SDS011;30487;48.716;9.272;2023-04-15T06:33:11;6.00;;;2.85;;
44766;SDS011;30487;48.716;9.272;2023-04-15T06:35:37;7.72;;;3.35;;
44766;SDS011;30487;48.716;9.272;2023-04-15T06:38:06;12.27;;;4.00;;
44766;SDS011;30487;48.716;9.272;2023-04-15T06:40:31;8.88;;;3.17;;
44766;SDS011;30487;48.716;9.272;2023-04-15T06:42:57;7.45;;;2.28;;
44766;SDS011;30487;48.716;9.272;2023-04-15T06:45:26;4.75;;;2.38;;
44766;SDS011;30487;48.716;9.272;2023-04-15T06:47:51;8.07;;;2.90;;
44766;SDS011;30487;48.716;9.272;2023-04-15T06:50:17;6.72;;;2.75;;
44766;SDS011;30487;48.716;9.272;2023-04-15T06:52:45;7.25;;;2.42;;
44766;SDS011;30487;48.716;9.272;2023-04-15T06:55:11;6.20;;;2.58;;
44766;SDS011;30487;48.716;9.272;2023-04-15T06:57:36;10.05;;;2.47;;
44766;SDS011;30487;48.716;9.272;2023-04-15T07:00:02;7.80;;;2.55;;
44766;SDS011;30487;48.716;9.272;2023-04-15T07:02:29;6.60;;;2.38;;
44766;SDS011;30487;48.716;9.272;2023-04-15T07:04:58;4.55;;;2.40;;
44766;SDS011;30487;48.716;9.272;2023-04-15T07:07:23;9.02;;;2.55;;
44766;SDS011;30487;48.716;9.272;2023-04-15T07:09:49;9.43;;;2.75;;
44766;SDS011;30487;48.716;9.272;2023-04-15T07:12:16;5.30;;;2.28;;
44766;SDS011;30487;48.716;9.272;2023-04-15T07:14:42;5.85;;;2.67;;
44766;SDS011;30487;48.716;9.272;2023-04-15T07:17:08;10.75;;;2.92;;
44766;SDS011;30487;48.716;9.272;2023-04-15T07:19:33;6.72;;;3.03;;
44766;SDS011;30487;48.716;9.272;2023-04-15T07:21:59;7.00;;;2.50;;
44766;SDS011;30487;48.716;9.272;2023-04-15T07:24:25;7.88;;;2.67;;
44766;SDS011;30487;48.716;9.272;2023-04-15T07:26:52;7.63;;;2.20;;
44766;SDS011;30487;48.716;9.272;2023-04-15T07:29:18;7.32;;;2.83;;
44766;SDS011;30487;48.716;9.272;2023-04-15T07:31:44;6.10;;;2.50;;
44766;SDS011;30487;48.716;9.272;2023-04-15T07:34:10;5.18;;;2.70;;
44766;SDS011;30487;48.716;9.272;2023-04-15T07:36:35;5.65;;;2.42;;
44766;SDS011;30487;48.716;9.272;2023-04-15T07:39:01;10.90;;;2.95;;
44766;SDS011;30487;48.716;9.272;2023-04-15T07:41:28;5.65;;;2.25;;
44766;SDS011;30487;48.716;9.272;2023-04-15T07:43:54;4.70;;;2.22;;
44766;SDS011;30487;48.716;9.272;2023-04-15T07:46:20;4.78;;;2.60;;
44766;SDS011;30487;48.716;9.272;2023-04-15T07:48:47;5.22;;;2.40;;
44766;SDS011;30487;48.716;9.272;2023-04-15T07:51:13;8.88;;;3.17;;
44766;SDS011;30487;48.716;9.272;2023-04-15T07:53:39;5.65;;;2.20;;
44766;SDS011;30487;48.716;9.272;2023-04-15T07:56:04;6.00;;;2.38;;
44766;SDS011;30487;48.716;9.272;2023-04-15T07:58:30;4.00;;;1.98;;
44766;SDS011;30487;48.716;9.272;2023-04-15T08:00:56;6.80;;;2.58;;
44766;SDS011;30487;48.716;9.272;2023-04-15T08:03:21;6.63;;;2.97;;
44766;SDS011;30487;48.716;9.272;2023-04-15T08:05:47;7.80;;;2.63;;
44766;SDS011;30487;48.716;9.272;2023-04-15T08:08:13;6.13;;;2.72;;
44766;SDS011;30487;48.716;9.272;2023-04-15T08:10:39;7.55;;;2.63;;
44766;SDS011;30487;48.716;9.272;2023-04-15T08:13:04;7.60;;;2.78;;
44766;SDS011;30487;48.716;9.272;2023-04-15T08:15:30;6.32;;;2.40;;
44766;SDS011;30487;48.716;9.272;2023-04-15T08:17:57;6.13;;;2.85;;
44766;SDS011;30487;48.716;9.272;2023-04-15T08:20:24;7.45;;;2.70;;
44766;SDS011;30487;48.716;9.272;2023-04-15T08:22:50;8.40;;;2.60;;
44766;SDS011;30487;48.716;9.272;2023-04-15T08:25:16;6.47;;;2.67;;
44766;SDS011;30487;48.716;9.272;2023-04-15T08:27:43;7.50;;;2.63;;
44766;SDS011;30487;48.716;9.272;2023-04-15T08:30:08;6.43;;;2.75;;
44766;SDS011;30487;48.716;9.272;2023-04-15T08:32:34;8.45;;;3.00;;
44766;SDS011;30487;48.716;9.272;2023-04-15T08:35:00;8.90;;;2.85;;
44766;SDS011;30487;48.716;9.272;2023-04-15T08:37:25;10.70;;;2.90;;
44766;SDS011;30487;48.716;9.272;2023-04-15T08:39:51;5.53;;;2.47;;
44766;SDS011;30487;48.716;9.272;2023-04-15T08:42:18;5.15;;;2.40;;
44766;SDS011;30487;48.716;9.272;2023-04-15T08:44:51;7.13;;;3.17;;
44766;SDS011;30487;48.716;9.272;2023-04-15T08:47:19;7.55;;;3.50;;
44766;SDS011;30487;48.716;9.272;2023-04-15T08:49:46;6.53;;;2.83;;
44766;SDS011;30487;48.716;9.272;2023-04-15T08:52:17;7.22;;;3.10;;
44766;SDS011;30487;48.716;9.272;2023-04-15T08:54:44;6.35;;;2.47;;
44766;SDS011;30487;48.716;9.272;2023-04-15T08:57:10;6.72;;;2.85;;
44766;SDS011;30487;48.716;9.272;2023-04-15T08:59:36;5.63;;;3.03;;
44766;SDS011;30487;48.716;9.272;2023-04-15T09:02:02;8.27;;;2.97;;
44766;SDS011;30487;48.716;9.272;2023-04-15T09:04:28;6.60;;;2.78;;
44766;SDS011;30487;48.716;9.272;2023-04-15T09:06:54;7.50;;;2.50;;
44766;SDS011;30487;48.716;9.272;2023-04-15T09:09:21;5.95;;;2.78;;
44766;SDS011;30487;48.716;9.272;2023-04-15T09:11:46;8.27;;;2.90;;
44766;SDS011;30487;48.716;9.272;2023-04-15T09:14:13;6.00;;;3.05;;
44766;SDS011;30487;48.716;9.272;2023-04-15T09:16:54;6.72;;;2.83;;
44766;SDS011;30487;48.716;9.272;2023-04-15T09:19:22;5.68;;;2.53;;
44766;SDS011;30487;48.716;9.272;2023-04-15T09:21:49;6.15;;;2.63;;
44766;SDS011;30487;48.716;9.272;2023-04-15T09:24:17;4.97;;;2.08;;
44766;SDS011;30487;48.716;9.272;2023-04-15T09:26:42;6.57;;;2.30;;
44766;SDS011;30487;48.716;9.272;2023-04-15T09:29:09;4.22;;;1.73;;
44766;SDS011;30487;48.716;9.272;2023-04-15T09:31:37;3.20;;;1.58;;
44766;SDS011;30487;48.716;9.272;2023-04-15T09:34:03;3.08;;;1.50;;
44766;SDS011;30487;48.716;9.272;2023-04-15T09:36:35;4.30;;;1.73;;
44766;SDS011;30487;48.716;9.272;2023-04-15T09:39:22;4.22;;;1.70;;
44766;SDS011;30487;48.716;9.272;2023-04-15T09:42:04;3.63;;;1.42;;
44766;SDS011;30487;48.716;9.272;2023-04-15T09:44:33;3.35;;;1.35;;
44766;SDS011;30487;48.716;9.272;2023-04-15T09:46:58;4.38;;;1.60;;
44766;SDS011;30487;48.716;9.272;2023-04-15T09:49:24;3.85;;;1.50;;
44766;SDS011;30487;48.716;9.272;2023-04-15T09:51:50;4.13;;;1.38;;
44766;SDS011;30487;48.716;9.272;2023-04-15T09:54:18;4.18;;;1.92;;
44766;SDS011;30487;48.716;9.272;2023-04-15T09:56:45;3.47;;;1.60;;
44766;SDS011;30487;48.716;9.272;2023-04-15T09:59:11;6.55;;;2.28;;
44766;SDS011;30487;48.716;9.272;2023-04-15T10:01:36;5.18;;;1.88;;
44766;SDS011;30487;48.716;9.272;2023-04-15T10:04:03;6.32;;;1.80;;
44766;SDS011;30487;48.716;9.272;2023-04-15T10:06:29;6.13;;;2.38;;
44766;SDS011;30487;48.716;9.272;2023-04-15T10:08:56;4.28;;;2.25;;
44766;SDS011;30487;48.716;9.272;2023-04-15T10:11:22;7.45;;;2.67;;
44766;SDS011;30487;48.716;9.272;2023-04-15T10:13:49;6.03;;;2.30;;
44766;SDS011;30487;48.716;9.272;2023-04-15T10:16:15;5.97;;;2.22;;
44766;SDS011;30487;48.716;9.272;2023-04-15T10:18:44;7.07;;;2.30;;
44766;SDS011;30487;48.716;9.272;2023-04-15T10:21:11;7.47;;;2.10;;
44766;SDS011;30487;48.716;9.272;2023-04-15T10:23:40;6.15;;;2.22;;
44766;SDS011;30487;48.716;9.272;2023-04-15T10:26:06;4.88;;;2.03;;
44766;SDS011;30487;48.716;9.272;2023-04-15T10:28:33;6.93;;;1.95;;
44766;SDS011;30487;48.716;9.272;2023-04-15T10:30:59;8.52;;;2.13;;
44766;SDS011;30487;48.716;9.272;2023-04-15T10:33:26;6.47;;;2.00;;
44766;SDS011;30487;48.716;9.272;2023-04-15T10:35:53;6.15;;;2.20;;
44766;SDS011;30487;48.716;9.272;2023-04-15T10:39:02;6.03;;;1.90;;
44766;SDS011;30487;48.716;9.272;2023-04-15T10:41:17;3.03;;;1.55;;
44766;SDS011;30487;48.716;9.272;2023-04-15T10:43:50;6.35;;;2.38;;
44766;SDS011;30487;48.716;9.272;2023-04-15T10:46:38;8.60;;;2.75;;
44766;SDS011;30487;48.716;9.272;2023-04-15T10:49:09;7.72;;;2.40;;
44766;SDS011;30487;48.716;9.272;2023-04-15T10:51:37;5.93;;;2.00;;
44766;SDS011;30487;48.716;9.272;2023-04-15T10:54:13;7.05;;;2.40;;
44766;SDS011;30487;48.716;9.272;2023-04-15T10:56:51;4.00;;;1.80;;
44766;SDS011;30487;48.716;9.272;2023-04-15T11:03:04;6.88;;;2.40;;
44766;SDS011;30487;48.716;9.272;2023-04-15T11:05:47;3.42;;;1.70;;
44766;SDS011;30487;48.716;9.272;2023-04-15T11:08:14;4.65;;;1.77;;
44766;SDS011;30487;48.716;9.272;2023-04-15T11:13:16;3.25;;;1.73;;
44766;SDS011;30487;48.716;9.272;2023-04-15T11:15:46;6.40;;;1.75;;
44766;SDS011;30487;48.716;9.272;2023-04-15T11:20:40;3.50;;;1.75;;
44766;SDS011;30487;48.716;9.272;2023-04-15T11:23:10;4.85;;;1.60;;
44766;SDS011;30487;48.716;9.272;2023-04-15T11:25:36;5.18;;;2.00;;
44766;SDS011;30487;48.716;9.272;2023-04-15T11:28:02;7.47;;;2.28;;
44766;SDS011;30487;48.716;9.272;2023-04-15T11:30:29;5.57;;;1.65;;
44766;SDS011;30487;48.716;9.272;2023-04-15T11:32:58;5.28;;;2.10;;
44766;SDS011;30487;48.716;9.272;2023-04-15T11:35:25;6.43;;;2.08;;
44766;SDS011;30487;48.716;9.272;2023-04-15T11:37:51;5.88;;;2.20;;
44766;SDS011;30487;48.716;9.272;2023-04-15T11:40:21;5.72;;;2.28;;
44766;SDS011;30487;48.716;9.272;2023-04-15T11:45:49;6.13;;;1.80;;
44766;SDS011;30487;48.716;9.272;2023-04-15T11:48:17;7.50;;;2.00;;
44766;SDS011;30487;48.716;9.272;2023-04-15T11:50:44;5.45;;;2.17;;
44766;SDS011;30487;48.716;9.272;2023-04-15T11:53:10;7.70;;;2.83;;
44766;SDS011;30487;48.716;9.272;2023-04-15T11:55:47;10.23;;;3.70;;
44766;SDS011;30487;48.716;9.272;2023-04-15T12:00:45;7.32;;;3.45;;
44766;SDS011;30487;48.716;9.272;2023-04-15T12:03:30;8.32;;;2.78;;
44766;SDS011;30487;48.716;9.272;2023-04-15T12:11:48;8.25;;;2.90;;
44766;SDS011;30487;48.716;9.272;2023-04-15T12:14:24;9.98;;;2.90;;
44766;SDS011;30487;48.716;9.272;2023-04-15T12:16:53;5.65;;;2.30;;
44766;SDS011;30487;48.716;9.272;2023-04-15T12:19:28;6.68;;;3.13;;
44766;SDS011;30487;48.716;9.272;2023-04-15T12:22:09;6.22;;;2.88;;
44766;SDS011;30487;48.716;9.272;2023-04-15T12:24:36;6.03;;;2.50;;
44766;SDS011;30487;48.716;9.272;2023-04-15T12:29:35;6.27;;;2.70;;
44766;SDS011;30487;48.716;9.272;2023-04-15T12:32:07;5.20;;;2.47;;
44766;SDS011;30487;48.716;9.272;2023-04-15T12:34:37;7.40;;;2.10;;
44766;SDS011;30487;48.716;9.272;2023-04-15T12:37:05;6.85;;;2.33;;
44766;SDS011;30487;48.716;9.272;2023-04-15T12:39:37;7.90;;;2.15;;
44766;SDS011;30487;48.716;9.272;2023-04-15T12:42:04;7.07;;;2.25;;
44766;SDS011;30487;48.716;9.272;2023-04-15T12:44:30;6.07;;;2.13;;
44766;SDS011;30487;48.716;9.272;2023-04-15T12:46:57;4.68;;;2.03;;
44766;SDS011;30487;48.716;9.272;2023-04-15T12:49:23;5.82;;;2.40;;
44766;SDS011;30487;48.716;9.272;2023-04-15T12:51:51;5.28;;;2.58;;
44766;SDS011;30487;48.716;9.272;2023-04-15T12:54:19;6.07;;;2.50;;
44766;SDS011;30487;48.716;9.272;2023-04-15T12:56:45;8.73;;;2.83;;
44766;SDS011;30487;48.716;9.272;2023-04-15T12:59:12;6.63;;;2.58;;
44766;SDS011;30487;48.716;9.272;2023-04-15T13:01:38;6.40;;;2.72;;
44766;SDS011;30487;48.716;9.272;2023-04-15T13:04:05;7.78;;;3.03;;
44766;SDS011;30487;48.716;9.272;2023-04-15T13:06:31;6.63;;;3.10;;
44766;SDS011;30487;48.716;9.272;2023-04-15T13:09:00;8.32;;;2.65;;
44766;SDS011;30487;48.716;9.272;2023-04-15T13:11:27;6.25;;;2.83;;
44766;SDS011;30487;48.716;9.272;2023-04-15T13:13:55;6.50;;;3.05;;
44766;SDS011;30487;48.716;9.272;2023-04-15T13:16:22;4.72;;;2.50;;
44766;SDS011;30487;48.716;9.272;2023-04-15T13:18:48;4.80;;;2.40;;
44766;SDS011;30487;48.716;9.272;2023-04-15T13:21:14;5.60;;;2.00;;
44766;SDS011;30487;48.716;9.272;2023-04-15T13:23:41;3.25;;;1.83;;
44766;SDS011;30487;48.716;9.272;2023-04-15T13:26:06;5.38;;;1.98;;
44766;SDS011;30487;48.716;9.272;2023-04-15T13:28:32;5.32;;;1.70;;
44766;SDS011;30487;48.716;9.272;2023-04-15T13:30:58;4.78;;;1.77;;
44766;SDS011;30487;48.716;9.272;2023-04-15T13:33:24;5.72;;;1.70;;
44766;SDS011;30487;48.716;9.272;2023-04-15T13:35:51;2.63;;;1.50;;
44766;SDS011;30487;48.716;9.272;2023-04-15T13:38:17;3.40;;;1.70;;
44766;SDS011;30487;48.716;9.272;2023-04-15T13:40:42;3.53;;;1.55;;
44766;SDS011;30487;48.716;9.272;2023-04-15T13:43:08;5.10;;;1.80;;
44766;SDS011;30487;48.716;9.272;2023-04-15T13:45:34;4.05;;;1.60;;
44766;SDS011;30487;48.716;9.272;2023-04-15T13:47:59;2.63;;;1.40;;
44766;SDS011;30487;48.716;9.272;2023-04-15T13:50:25;4.97;;;1.63;;
44766;SDS011;30487;48.716;9.272;2023-04-15T13:52:51;4.07;;;1.92;;
44766;SDS011;30487;48.716;9.272;2023-04-15T13:55:17;4.88;;;1.60;;
44766;SDS011;30487;48.716;9.272;2023-04-15T13:57:43;6.20;;;1.60;;
44766;SDS011;30487;48.716;9.272;2023-04-15T14:00:08;4.28;;;1.52;;
44766;SDS011;30487;48.716;9.272;2023-04-15T14:02:35;4.85;;;1.77;;
44766;SDS011;30487;48.716;9.272;2023-04-15T14:05:00;3.33;;;1.50;;
44766;SDS011;30487;48.716;9.272;2023-04-15T14:07:27;3.10;;;1.10;;
44766;SDS011;30487;48.716;9.272;2023-04-15T14:09:56;4.95;;;1.23;;
44766;SDS011;30487;48.716;9.272;2023-04-15T14:12:22;2.58;;;1.17;;
44766;SDS011;30487;48.716;9.272;2023-04-15T14:14:47;2.78;;;1.10;;
44766;SDS011;30487;48.716;9.272;2023-04-15T14:17:13;3.92;;;1.23;;
44766;SDS011;30487;48.716;9.272;2023-04-15T14:19:39;4.78;;;0.90;;
44766;SDS011;30487;48.716;9.272;2023-04-15T14:22:04;1.83;;;0.75;;
44766;SDS011;30487;48.716;9.272;2023-04-15T14:24:30;3.97;;;0.80;;
44766;SDS011;30487;48.716;9.272;2023-04-15T14:26:56;5.60;;;0.90;;
44766;SDS011;30487;48.716;9.272;2023-04-15T14:29:22;2.03;;;0.70;;
44766;SDS011;30487;48.716;9.272;2023-04-15T14:31:47;4.00;;;0.75;;
44766;SDS011;30487;48.716;9.272;2023-04-15T14:34:14;1.80;;;0.65;;
44766;SDS011;30487;48.716;9.272;2023-04-15T14:36:40;4.78;;;0.80;;
44766;SDS011;30487;48.716;9.272;2023-04-15T14:39:06;2.92;;;0.77;;
44766;SDS011;30487;48.716;9.272;2023-04-15T14:41:32;2.50;;;0.90;;
44766;SDS011;30487;48.716;9.272;2023-04-15T14:43:58;1.58;;;0.80;;
44766;SDS011;30487;48.716;9.272;2023-04-15T14:46:24;1.50;;;0.80;;
44766;SDS011;30487;48.716;9.272;2023-04-15T14:48:50;3.25;;;0.73;;
44766;SDS011;30487;48.716;9.272;2023-04-15T14:51:15;4.25;;;1.00;;
44766;SDS011;30487;48.716;9.272;2023-04-15T14:53:41;1.52;;;0.70;;
44766;SDS011;30487;48.716;9.272;2023-04-15T14:56:07;2.83;;;0.70;;
44766;SDS011;30487;48.716;9.272;2023-04-15T14:58:33;2.33;;;0.80;;
44766;SDS011;30487;48.716;9.272;2023-04-15T15:00:59;2.25;;;0.70;;
44766;SDS011;30487;48.716;9.272;2023-04-15T15:03:26;1.60;;;0.70;;
44766;SDS011;30487;48.716;9.272;2023-04-15T15:05:52;2.78;;;0.77;;